Terminal Aerodrome Forecast
Issued by NWS

Home | Current Version | Previous Version | Text Only | Print | Product List | Glossary Off
Versions: 1 2 3 4 5 6 7 8 9 10 11 12 13 14 15 16 17 18 19 20

799
FTUS42 KMHX 191121
TAFPGV
TAF
KPGV 191121Z 1912/2012 00000KT P6SM FEW250
      TEMPO 1912/1913 3SM BR
     FM191500 04006KT P6SM SCT200
     FM200900 VRB03KT P6SM BKN050
      AMD LTD TO CLD VIS AND WIND=

USA.gov is the U.S. government's official web portal to all federal, state and local government web resources and services.